Time;durP1;ratioP1;P1;durP2;ratioP2;P2;SDS_P1;SDS_P2;PMS_P1;PMS_P2;Temp;Humidity;BMP_temperature;BMP_pressure;BME280_temperature;BME280_humidity;BME280_pressure;Samples;Min_cycle;Max_cycle;Signal;HPM_P1;HPM_P2
2023/03/02 00:02:10;;;;;;;15.38;7.75;;;0.00;99.90;;;;;;5016993;28;20474;-70
2023/03/02 00:04:45;;;;;;;16.15;7.97;;;-0.20;99.90;;;;;;5014082;28;20054;-70
2023/03/02 00:07:18;;;;;;;19.60;8.80;;;-0.40;99.90;;;;;;5012674;28;20800;-70
2023/03/02 00:09:44;;;;;;;16.10;8.07;;;-0.50;99.90;;;;;;4984943;28;20045;-70
2023/03/02 00:12:10;;;;;;;17.55;8.70;;;-0.60;99.90;;;;;;5000314;28;20049;-70
2023/03/02 00:14:36;;;;;;;18.05;8.38;;;-0.40;99.90;;;;;;5002425;28;20053;-70
2023/03/02 00:17:04;;;;;;;16.02;7.78;;;-0.40;99.90;;;;;;5023190;28;20047;-70
2023/03/02 00:19:30;;;;;;;17.10;8.63;;;-0.40;99.90;;;;;;5023295;28;20112;-70
2023/03/02 00:21:55;;;;;;;13.43;7.90;;;-0.50;99.90;;;;;;4996369;28;20151;-70
2023/03/02 00:24:21;;;;;;;16.63;7.65;;;-0.70;99.90;;;;;;5000017;28;20042;-70
2023/03/02 00:26:47;;;;;;;19.83;9.20;;;-0.70;99.90;;;;;;5010328;28;20041;-70
2023/03/02 00:29:13;;;;;;;16.38;8.50;;;-0.50;99.90;;;;;;5005530;28;20038;-70
2023/03/02 00:31:38;;;;;;;17.45;8.48;;;-0.50;99.90;;;;;;5022980;28;20056;-70
2023/03/02 00:34:04;;;;;;;18.23;8.65;;;-0.70;99.90;;;;;;5061510;28;20056;-70
2023/03/02 00:36:30;;;;;;;17.33;8.32;;;-0.40;99.90;;;;;;5017409;28;20049;-70
2023/03/02 00:38:56;;;;;;;17.77;8.40;;;-0.80;99.90;;;;;;5015267;28;20046;-70
2023/03/02 00:41:22;;;;;;;15.98;7.75;;;-0.90;99.90;;;;;;5055526;28;20038;-70
2023/03/02 00:43:48;;;;;;;14.30;8.68;;;-0.80;99.90;;;;;;5032021;28;20038;-70
2023/03/02 00:46:18;;;;;;;19.70;7.90;;;-0.90;99.90;;;;;;5031999;28;20046;-70
2023/03/02 00:48:44;;;;;;;17.98;8.27;;;-1.10;99.90;;;;;;5038068;28;20045;-70
2023/03/02 00:51:10;;;;;;;13.40;6.65;;;-0.90;99.90;;;;;;5021823;28;20651;-70
2023/03/02 00:53:36;;;;;;;15.38;7.07;;;-0.80;99.90;;;;;;5030438;28;20069;-70
2023/03/02 00:56:02;;;;;;;14.45;6.82;;;-0.60;99.90;;;;;;5019691;28;20498;-70
2023/03/02 00:58:28;;;;;;;17.08;7.85;;;-0.40;99.90;;;;;;5032761;28;20049;-70
2023/03/02 01:00:54;;;;;;;12.90;7.40;;;-0.50;99.90;;;;;;5033020;28;20378;-69
2023/03/02 01:03:20;;;;;;;14.75;7.30;;;-0.50;99.90;;;;;;5019020;28;20445;-70
2023/03/02 01:05:45;;;;;;;14.43;7.35;;;-0.50;99.90;;;;;;5023518;28;20049;-70
2023/03/02 01:08:11;;;;;;;12.60;7.43;;;-0.50;99.90;;;;;;4998723;28;20049;-70
2023/03/02 01:10:37;;;;;;;13.32;7.03;;;-0.60;99.90;;;;;;5029194;28;20045;-70
2023/03/02 01:13:04;;;;;;;16.75;7.78;;;-0.50;99.90;;;;;;5000561;28;20049;-71
2023/03/02 01:15:30;;;;;;;14.50;7.60;;;-0.50;99.90;;;;;;5002617;28;20049;-70
2023/03/02 01:17:55;;;;;;;13.48;7.70;;;-0.50;99.90;;;;;;4980732;28;20597;-70
2023/03/02 01:20:21;;;;;;;14.40;7.90;;;-0.70;99.90;;;;;;5028287;28;20046;-70
2023/03/02 01:22:47;;;;;;;10.80;6.90;;;-0.70;99.90;;;;;;5021663;28;20049;-70
2023/03/02 01:25:13;;;;;;;15.43;7.10;;;-0.80;99.90;;;;;;5030270;28;20062;-70
2023/03/02 01:27:40;;;;;;;15.20;7.07;;;-0.70;99.90;;;;;;5006395;28;20389;-70
2023/03/02 01:30:06;;;;;;;13.35;6.95;;;-1.00;99.90;;;;;;5038457;28;20053;-70
2023/03/02 01:32:32;;;;;;;14.02;6.95;;;-0.90;99.90;;;;;;5013262;28;20054;-70
2023/03/02 01:34:58;;;;;;;12.38;5.93;;;-0.90;99.90;;;;;;5021657;28;20064;-70
2023/03/02 01:37:23;;;;;;;13.27;7.28;;;-0.70;99.90;;;;;;5001917;28;20050;-70
2023/03/02 01:39:49;;;;;;;20.80;7.38;;;-0.70;99.90;;;;;;5020307;28;20587;-70
2023/03/02 01:42:15;;;;;;;13.50;6.97;;;-0.60;99.90;;;;;;5041662;28;20103;-70
2023/03/02 01:44:44;;;;;;;14.50;7.32;;;-0.60;99.90;;;;;;5007812;28;20046;-70
2023/03/02 01:47:21;;;;;;;13.70;7.18;;;-0.70;99.90;;;;;;5035446;28;20489;-70
2023/03/02 01:50:18;;;;;;;15.43;6.60;;;-0.80;99.90;;;;;;5009767;28;20046;-71
2023/03/02 01:52:44;;;;;;;14.25;7.30;;;-0.90;99.90;;;;;;5020946;28;20505;-70
2023/03/02 01:55:11;;;;;;;13.38;7.47;;;-0.90;99.90;;;;;;5023359;28;20053;-70
2023/03/02 01:57:42;;;;;;;15.95;8.18;;;-0.90;99.90;;;;;;5018661;28;20050;-70
2023/03/02 02:00:10;;;;;;;13.75;7.13;;;-0.90;99.90;;;;;;4982284;28;20042;-70
2023/03/02 02:02:40;;;;;;;13.52;7.30;;;-0.80;99.90;;;;;;4993098;28;20674;-70
2023/03/02 02:05:08;;;;;;;16.13;7.22;;;-0.70;99.90;;;;;;5009220;28;20058;-70
2023/03/02 02:07:34;;;;;;;14.80;7.18;;;-0.60;99.90;;;;;;5003383;28;20100;-70
2023/03/02 02:10:00;;;;;;;15.13;7.80;;;-0.60;99.90;;;;;;4996684;28;20053;-70
2023/03/02 02:12:26;;;;;;;14.15;7.50;;;-0.70;99.90;;;;;;4984158;28;20053;-70
2023/03/02 02:14:52;;;;;;;13.65;6.82;;;-0.80;99.90;;;;;;5014018;28;20073;-70
2023/03/02 02:17:18;;;;;;;17.20;8.13;;;-0.60;99.90;;;;;;5001893;28;20057;-70
2023/03/02 02:20:12;;;;;;;16.60;7.75;;;-0.70;99.90;;;;;;5002312;28;20447;-70
2023/03/02 02:23:02;;;;;;;16.02;8.07;;;-0.70;99.90;;;;;;5047771;28;20041;-70
2023/03/02 02:25:47;;;;;;;18.20;8.43;;;-0.60;99.90;;;;;;5016899;28;20049;-70
2023/03/02 02:28:26;;;;;;;13.30;6.97;;;-0.60;99.90;;;;;;5018968;28;20049;-70
2023/03/02 02:31:02;;;;;;;14.20;6.75;;;-0.70;99.90;;;;;;5030080;28;20482;-70
2023/03/02 02:33:28;;;;;;;14.45;7.18;;;-0.80;99.90;;;;;;5026891;28;20088;-70
2023/03/02 02:35:58;;;;;;;11.93;6.85;;;-1.00;99.90;;;;;;4986747;28;20069;-71
2023/03/02 02:38:24;;;;;;;12.90;7.63;;;-1.00;99.90;;;;;;4996853;28;20470;-69
2023/03/02 02:40:52;;;;;;;14.57;7.57;;;-0.90;99.90;;;;;;4995998;28;20133;-70
2023/03/02 02:43:20;;;;;;;13.30;7.45;;;-1.10;99.90;;;;;;4994964;28;20138;-70
2023/03/02 02:45:47;;;;;;;11.95;7.05;;;-1.00;99.90;;;;;;5019623;28;20076;-70
2023/03/02 02:48:15;;;;;;;15.05;7.53;;;-1.10;99.90;;;;;;5034182;28;20041;-71
2023/03/02 02:50:40;;;;;;;15.82;8.40;;;-1.20;99.90;;;;;;5037934;28;20046;-70
2023/03/02 02:53:25;;;;;;;15.13;7.93;;;-1.10;99.90;;;;;;5022844;28;20054;-70
2023/03/02 02:55:51;;;;;;;16.17;7.60;;;-1.10;99.90;;;;;;5006342;28;20053;-70
2023/03/02 02:58:30;;;;;;;14.85;8.00;;;-1.00;99.90;;;;;;5017287;28;20052;-71
2023/03/02 03:00:55;;;;;;;;;;;-0.90;99.90;;;;;;5006389;28;20042;-70
2023/03/02 03:03:32;;;;;;;16.80;7.70;;;-1.00;99.90;;;;;;5013208;28;19910;-70
2023/03/02 03:06:00;;;;;;;15.27;7.82;;;-1.00;99.90;;;;;;4995019;28;20049;-70
2023/03/02 03:08:44;;;;;;;18.00;8.50;;;-1.00;99.90;;;;;;5001383;28;20053;-70
2023/03/02 03:11:14;;;;;;;17.05;8.52;;;-1.00;99.90;;;;;;5023499;28;20132;-70
2023/03/02 03:13:40;;;;;;;17.42;8.88;;;-1.10;99.90;;;;;;5001054;28;20046;-70
2023/03/02 03:16:06;;;;;;;18.05;8.73;;;-1.10;99.90;;;;;;5030962;28;20053;-71
2023/03/02 03:18:32;;;;;;;15.10;8.13;;;-1.10;99.90;;;;;;4997677;28;20149;-71
2023/03/02 03:20:58;;;;;;;18.17;9.13;;;-1.00;99.90;;;;;;5011172;28;20467;-71
2023/03/02 03:23:23;;;;;;;17.63;10.00;;;-1.00;99.90;;;;;;5011696;28;20132;-71
2023/03/02 03:25:49;;;;;;;19.05;9.55;;;-1.10;99.90;;;;;;4990557;28;20042;-70
2023/03/02 03:28:15;;;;;;;19.50;10.82;;;-1.00;99.90;;;;;;5021153;28;20049;-71
2023/03/02 03:30:41;;;;;;;23.35;10.73;;;-1.00;99.90;;;;;;5055675;28;20053;-70
2023/03/02 03:33:09;;;;;;;21.90;10.50;;;-1.10;99.90;;;;;;5025013;28;20052;-71
2023/03/02 03:35:39;;;;;;;19.00;9.75;;;-1.00;99.90;;;;;;5004434;28;20487;-71
2023/03/02 03:38:05;;;;;;;23.27;10.82;;;-1.00;99.90;;;;;;5001462;28;20037;-71
2023/03/02 03:40:34;;;;;;;20.60;11.15;;;-1.00;99.90;;;;;;5018013;28;20052;-71
2023/03/02 03:43:00;;;;;;;23.63;11.55;;;-0.90;99.90;;;;;;5016674;28;20049;-71
2023/03/02 03:45:26;;;;;;;26.17;11.88;;;-0.90;99.90;;;;;;5013711;28;20107;-70
2023/03/02 03:47:52;;;;;;;24.63;12.50;;;-0.90;99.90;;;;;;4977630;28;20051;-70
2023/03/02 03:50:18;;;;;;;27.63;12.75;;;-0.80;99.90;;;;;;5053467;28;20076;-71
2023/03/02 03:52:43;;;;;;;27.95;13.13;;;-1.00;99.90;;;;;;5020734;28;20045;-70
2023/03/02 03:55:10;;;;;;;26.35;12.88;;;-0.90;99.90;;;;;;4998911;28;20049;-70
2023/03/02 03:57:35;;;;;;;30.73;14.52;;;-0.70;99.90;;;;;;5035170;28;20075;-70
2023/03/02 04:00:04;;;;;;;30.90;15.27;;;-0.70;99.90;;;;;;5005412;28;20041;-71
2023/03/02 04:02:30;;;;;;;30.73;14.20;;;-0.60;99.90;;;;;;5016249;28;20745;-71
2023/03/02 04:05:05;;;;;;;33.70;17.17;;;-0.60;99.90;;;;;;5047008;28;20060;-70
2023/03/02 04:07:35;;;;;;;34.25;15.50;;;-0.70;99.90;;;;;;5001003;28;20045;-70
2023/03/02 04:10:03;;;;;;;38.67;16.10;;;-0.50;99.90;;;;;;5023078;28;20820;-70
2023/03/02 04:12:30;;;;;;;51.78;20.92;;;-0.30;99.90;;;;;;5003824;28;20049;-70
2023/03/02 04:14:56;;;;;;;33.50;15.43;;;-0.40;99.90;;;;;;5017572;28;20057;-70
2023/03/02 04:17:22;;;;;;;32.83;16.17;;;-0.40;99.90;;;;;;5035574;28;20042;-70
2023/03/02 04:19:47;;;;;;;35.50;16.45;;;-0.30;99.90;;;;;;5018148;28;20727;-70
2023/03/02 04:22:15;;;;;;;31.73;15.80;;;-0.20;99.90;;;;;;5013315;28;20067;-70
2023/03/02 04:24:41;;;;;;;31.83;16.75;;;0.00;99.90;;;;;;5017961;28;20034;-70
2023/03/02 04:27:07;;;;;;;36.80;18.17;;;-0.20;99.90;;;;;;5002557;28;20116;-70
2023/03/02 04:29:33;;;;;;;29.88;15.85;;;-0.10;99.90;;;;;;5017112;28;20053;-71
2023/03/02 04:31:59;;;;;;;32.45;16.95;;;-0.10;99.90;;;;;;5019449;28;20129;-70
2023/03/02 04:34:25;;;;;;;29.40;15.77;;;-0.10;99.90;;;;;;5018359;28;20124;-70
2023/03/02 04:36:51;;;;;;;30.02;16.00;;;0.00;99.90;;;;;;5018120;28;20489;-70
2023/03/02 04:39:17;;;;;;;31.42;16.58;;;0.10;99.90;;;;;;5002485;28;20073;-70
2023/03/02 04:41:43;;;;;;;33.30;16.17;;;0.10;99.90;;;;;;5019546;28;20041;-70
2023/03/02 04:44:09;;;;;;;29.60;16.38;;;0.20;99.90;;;;;;5021607;28;20530;-71
2023/03/02 04:46:34;;;;;;;29.27;16.25;;;0.10;99.90;;;;;;5022726;28;20049;-71
2023/03/02 04:49:00;;;;;;;39.80;17.52;;;0.30;99.90;;;;;;5024714;28;20107;-70
2023/03/02 04:51:31;;;;;;;33.30;18.20;;;0.30;99.90;;;;;;5015614;28;20057;-71
2023/03/02 04:53:59;;;;;;;30.13;17.17;;;0.20;99.90;;;;;;4998442;28;20058;-70
2023/03/02 04:56:25;;;;;;;;;;;0.10;99.90;;;;;;5006575;28;20139;-70
2023/03/02 04:58:51;;;;;;;35.25;18.02;;;0.20;99.90;;;;;;5010278;28;20321;-70
2023/03/02 05:01:17;;;;;;;31.83;17.65;;;0.30;99.90;;;;;;5008992;28;20042;-70
2023/03/02 05:03:43;;;;;;;29.15;15.80;;;0.30;99.90;;;;;;5003910;28;20381;-70
2023/03/02 05:06:08;;;;;;;30.73;17.42;;;0.40;99.90;;;;;;4998806;28;20115;-70
2023/03/02 05:08:34;;;;;;;29.02;16.55;;;0.40;99.90;;;;;;4992063;28;20058;-71
2023/03/02 05:11:00;;;;;;;28.02;14.95;;;0.50;99.90;;;;;;5022000;28;20056;-71
2023/03/02 05:13:26;;;;;;;30.92;15.88;;;0.40;99.90;;;;;;5005798;28;20080;-70
2023/03/02 05:15:52;;;;;;;33.20;17.23;;;0.20;99.90;;;;;;5025316;28;20053;-70
2023/03/02 05:18:18;;;;;;;29.38;15.98;;;0.30;99.90;;;;;;5018454;28;20041;-70
2023/03/02 05:20:44;;;;;;;28.80;16.20;;;0.30;99.90;;;;;;5007419;28;20049;-70
2023/03/02 05:23:10;;;;;;;31.17;17.88;;;0.30;99.90;;;;;;5019949;28;20041;-70
2023/03/02 05:25:36;;;;;;;33.03;17.80;;;0.50;99.90;;;;;;5005146;28;20053;-71
2023/03/02 05:28:02;;;;;;;31.33;16.30;;;0.40;99.90;;;;;;5013608;28;20049;-70
2023/03/02 05:30:29;;;;;;;29.50;16.08;;;0.20;99.90;;;;;;5021846;28;20050;-70
2023/03/02 05:32:55;;;;;;;31.75;16.83;;;0.50;99.90;;;;;;5007907;28;20049;-70
2023/03/02 05:35:21;;;;;;;32.55;17.05;;;0.70;99.90;;;;;;5011352;28;20103;-70
2023/03/02 05:37:47;;;;;;;33.92;17.70;;;0.60;99.90;;;;;;5014999;28;20787;-71
2023/03/02 05:40:15;;;;;;;33.10;18.42;;;0.60;99.90;;;;;;5011908;28;20060;-70
2023/03/02 05:42:41;;;;;;;29.42;15.27;;;0.60;99.90;;;;;;5021998;28;20041;-70
2023/03/02 05:45:17;;;;;;;29.60;16.38;;;0.50;99.90;;;;;;5032102;28;20049;-71
2023/03/02 05:47:43;;;;;;;28.30;15.90;;;0.50;99.90;;;;;;5004868;28;20050;-70
2023/03/02 05:50:09;;;;;;;32.42;17.83;;;0.60;99.90;;;;;;4986269;28;20104;-70
2023/03/02 05:52:35;;;;;;;29.77;17.35;;;0.60;99.90;;;;;;4989113;28;20054;-70
2023/03/02 05:55:01;;;;;;;30.48;17.27;;;0.60;99.90;;;;;;5003961;28;20077;-71
2023/03/02 05:57:26;;;;;;;27.10;15.35;;;0.50;99.90;;;;;;5007978;28;20055;-70
2023/03/02 05:59:52;;;;;;;29.52;15.65;;;0.50;99.90;;;;;;5017141;28;20033;-70
2023/03/02 06:02:18;;;;;;;50.88;20.23;;;0.50;99.90;;;;;;5021522;28;20453;-70
2023/03/02 06:04:44;;;;;;;27.25;15.05;;;0.40;99.90;;;;;;5025218;28;20046;-71
2023/03/02 06:07:10;;;;;;;29.52;17.58;;;0.50;99.90;;;;;;4996407;28;20065;-70
2023/03/02 06:09:37;;;;;;;30.25;17.08;;;0.60;99.90;;;;;;5019684;28;20053;-70
2023/03/02 06:12:03;;;;;;;28.17;15.23;;;0.70;99.90;;;;;;5024792;28;20054;-70
2023/03/02 06:14:29;;;;;;;31.52;16.58;;;0.70;99.90;;;;;;5006559;28;20049;-70
2023/03/02 06:16:55;;;;;;;27.20;16.00;;;0.70;99.90;;;;;;5024412;28;20064;-70
2023/03/02 06:19:20;;;;;;;33.38;17.13;;;0.60;99.90;;;;;;5050188;28;20482;-70
2023/03/02 06:21:46;;;;;;;32.17;16.25;;;0.70;99.90;;;;;;5017207;28;20048;-71
2023/03/02 06:24:12;;;;;;;38.33;19.15;;;0.60;99.90;;;;;;5018595;28;20593;-70
2023/03/02 06:26:38;;;;;;;27.50;14.88;;;0.60;99.90;;;;;;5000999;28;20046;-70
2023/03/02 06:29:04;;;;;;;47.88;18.75;;;0.70;99.90;;;;;;5000983;28;20474;-70
2023/03/02 06:31:30;;;;;;;28.00;16.13;;;0.50;99.90;;;;;;4996664;28;20105;-71
2023/03/02 06:33:56;;;;;;;27.13;16.42;;;0.60;99.90;;;;;;5013354;28;20585;-70
2023/03/02 06:36:22;;;;;;;30.42;16.92;;;0.60;99.90;;;;;;4994669;28;20122;-70
2023/03/02 06:38:48;;;;;;;26.95;15.20;;;0.70;99.90;;;;;;5016364;28;20088;-71
2023/03/02 06:41:14;;;;;;;29.42;16.13;;;0.70;99.90;;;;;;5011899;28;20471;-71
2023/03/02 06:43:40;;;;;;;28.63;16.33;;;0.70;99.90;;;;;;5010587;28;20050;-70
2023/03/02 06:46:06;;;;;;;29.25;16.13;;;0.80;99.90;;;;;;5026588;28;20061;-70
2023/03/02 06:48:32;;;;;;;24.33;14.65;;;0.80;99.90;;;;;;5024721;28;20049;-70
2023/03/02 06:50:57;;;;;;;25.45;13.85;;;0.80;99.90;;;;;;4993008;28;20084;-72
2023/03/02 06:53:23;;;;;;;32.55;14.77;;;0.80;99.90;;;;;;5011002;28;20060;-71
2023/03/02 06:55:49;;;;;;;23.77;13.77;;;0.80;99.90;;;;;;5001932;28;20157;-71
2023/03/02 06:58:15;;;;;;;26.05;14.07;;;0.90;99.90;;;;;;5020264;28;20050;-71
2023/03/02 07:00:41;;;;;;;25.63;14.55;;;0.90;99.90;;;;;;5013854;28;20052;-70
2023/03/02 07:03:07;;;;;;;27.35;14.82;;;0.60;99.90;;;;;;5024090;28;20045;-71
2023/03/02 07:05:32;;;;;;;27.52;15.25;;;0.60;99.90;;;;;;4996904;28;20045;-70
2023/03/02 07:07:58;;;;;;;27.77;15.10;;;0.60;99.90;;;;;;5024330;28;20530;-71
2023/03/02 07:10:24;;;;;;;24.63;14.27;;;0.70;99.90;;;;;;4999216;28;20764;-70
2023/03/02 07:12:51;;;;;;;26.42;13.80;;;0.80;99.90;;;;;;5017313;28;20058;-70
2023/03/02 07:15:17;;;;;;;22.60;13.50;;;0.90;99.90;;;;;;5005573;28;20164;-71
2023/03/02 07:17:43;;;;;;;23.58;13.57;;;1.00;99.90;;;;;;5019647;28;20153;-70
2023/03/02 07:20:10;;;;;;;26.58;15.10;;;1.00;99.90;;;;;;5021928;28;20473;-71
2023/03/02 07:22:36;;;;;;;24.52;14.20;;;0.90;99.90;;;;;;4999130;28;20049;-71
2023/03/02 07:25:02;;;;;;;25.63;14.38;;;0.90;99.90;;;;;;4977502;28;20045;-71
2023/03/02 07:27:27;;;;;;;24.17;14.00;;;0.80;99.90;;;;;;5016304;28;20116;-70
2023/03/02 07:29:53;;;;;;;23.73;14.18;;;0.90;99.90;;;;;;4989228;28;20459;-70
2023/03/02 07:32:19;;;;;;;21.83;12.90;;;1.00;99.90;;;;;;5002620;28;20045;-70
2023/03/02 07:34:44;;;;;;;21.98;12.90;;;1.10;99.90;;;;;;5021404;28;20374;-70
2023/03/02 07:37:10;;;;;;;21.48;12.20;;;1.00;99.90;;;;;;4991933;28;20481;-70
2023/03/02 07:39:36;;;;;;;24.08;13.82;;;1.10;99.90;;;;;;5027559;28;20148;-71
2023/03/02 07:42:03;;;;;;;29.80;15.77;;;1.20;99.90;;;;;;5004936;28;20128;-70
2023/03/02 07:44:29;;;;;;;27.45;15.82;;;0.90;99.90;;;;;;5001585;28;20417;-70
2023/03/02 07:46:55;;;;;;;27.17;15.27;;;0.80;99.90;;;;;;5019177;28;20049;-70
2023/03/02 07:49:20;;;;;;;27.35;14.55;;;0.60;99.90;;;;;;5027965;28;20053;-70
2023/03/02 07:51:46;;;;;;;25.65;13.98;;;0.80;99.90;;;;;;5023121;28;20050;-70
2023/03/02 07:54:12;;;;;;;25.23;14.10;;;0.90;99.90;;;;;;4995391;28;20072;-72
2023/03/02 07:56:38;;;;;;;21.98;12.75;;;1.00;99.90;;;;;;5028006;28;20540;-71
2023/03/02 07:59:03;;;;;;;27.73;15.18;;;1.00;99.90;;;;;;5016931;28;20053;-71
2023/03/02 08:01:29;;;;;;;22.30;12.52;;;1.00;99.90;;;;;;5008501;28;20457;-71
2023/03/02 08:03:55;;;;;;;23.90;12.60;;;1.10;99.90;;;;;;5021929;28;20045;-70
2023/03/02 08:06:20;;;;;;;22.13;12.85;;;1.20;99.90;;;;;;5015067;28;20048;-70
2023/03/02 08:08:46;;;;;;;20.70;12.82;;;1.20;99.90;;;;;;5006709;28;20232;-70
2023/03/02 08:11:14;;;;;;;24.20;14.13;;;1.40;99.90;;;;;;5000651;28;20057;-71
2023/03/02 08:13:40;;;;;;;21.80;12.82;;;1.30;99.90;;;;;;5027860;28;20473;-71
2023/03/02 08:16:07;;;;;;;29.92;16.23;;;1.40;99.90;;;;;;4996782;28;20077;-70
2023/03/02 08:18:33;;;;;;;25.17;13.00;;;1.20;99.90;;;;;;4989309;28;20072;-70
2023/03/02 08:20:59;;;;;;;21.05;12.95;;;1.40;99.90;;;;;;5004971;28;20459;-71
2023/03/02 08:23:25;;;;;;;26.10;14.80;;;1.50;99.90;;;;;;4993758;28;20469;-70
2023/03/02 08:25:52;;;;;;;22.80;13.20;;;1.50;99.90;;;;;;4996019;28;20041;-71
2023/03/02 08:28:18;;;;;;;22.77;13.48;;;1.50;99.90;;;;;;5005981;28;20057;-71
2023/03/02 08:30:43;;;;;;;26.05;13.25;;;1.60;99.90;;;;;;5005085;28;20053;-70
2023/03/02 08:33:09;;;;;;;24.10;14.15;;;1.40;99.90;;;;;;5009642;28;20057;-70
2023/03/02 08:35:35;;;;;;;21.52;12.52;;;1.50;99.90;;;;;;5027640;28;20049;-70
2023/03/02 08:38:00;;;;;;;24.42;12.93;;;1.70;99.90;;;;;;5011423;28;20120;-70
2023/03/02 08:40:26;;;;;;;23.17;13.20;;;1.70;99.90;;;;;;5027808;28;20335;-70
2023/03/02 08:42:55;;;;;;;26.50;12.02;;;1.70;99.90;;;;;;4998485;28;20057;-70
2023/03/02 08:45:22;;;;;;;24.83;11.88;;;1.60;99.90;;;;;;5027850;28;20791;-71
2023/03/02 08:47:48;;;;;;;22.58;12.75;;;1.60;99.90;;;;;;5022139;28;20060;-71
2023/03/02 08:50:14;;;;;;;22.08;12.10;;;1.40;99.90;;;;;;5018650;28;20045;-70
2023/03/02 08:52:40;;;;;;;19.65;12.13;;;1.30;99.90;;;;;;5026298;28;20445;-71
2023/03/02 08:55:07;;;;;;;23.40;13.15;;;1.50;99.90;;;;;;5011061;28;20053;-70
2023/03/02 08:57:33;;;;;;;20.58;11.80;;;1.70;99.90;;;;;;5004229;28;20440;-70
2023/03/02 08:59:59;;;;;;;23.27;12.82;;;1.60;99.90;;;;;;4996170;28;20042;-69
2023/03/02 09:02:25;;;;;;;22.10;13.30;;;1.70;99.90;;;;;;5031634;28;20053;-69
2023/03/02 09:04:51;;;;;;;20.58;12.60;;;1.70;99.90;;;;;;5023635;28;20064;-69
2023/03/02 09:07:17;;;;;;;21.17;12.23;;;1.80;99.90;;;;;;5010671;28;20053;-69
2023/03/02 09:09:43;;;;;;;20.17;11.60;;;1.90;99.90;;;;;;5018383;28;20123;-69
2023/03/02 09:12:08;;;;;;;22.23;13.00;;;1.80;99.90;;;;;;5014493;28;20045;-69
2023/03/02 09:14:34;;;;;;;22.85;12.98;;;1.80;99.90;;;;;;5023263;28;20516;-69
2023/03/02 09:17:00;;;;;;;22.70;12.85;;;1.70;99.90;;;;;;5008190;28;20068;-69
2023/03/02 09:19:26;;;;;;;29.95;16.67;;;1.80;99.90;;;;;;5028284;28;20418;-69
2023/03/02 09:21:51;;;;;;;22.85;12.57;;;1.80;99.90;;;;;;5025592;28;20561;-69
2023/03/02 09:24:17;;;;;;;18.85;11.57;;;1.80;99.90;;;;;;5023717;28;20458;-69
2023/03/02 09:26:43;;;;;;;19.10;12.15;;;1.70;99.90;;;;;;5037209;28;20128;-69
2023/03/02 09:29:09;;;;;;;21.55;12.73;;;1.90;99.90;;;;;;5019232;28;20132;-69
2023/03/02 09:31:34;;;;;;;21.67;12.68;;;1.90;99.90;;;;;;5006194;28;20048;-69
2023/03/02 09:34:00;;;;;;;21.80;12.45;;;2.00;99.90;;;;;;5025330;28;20459;-69
2023/03/02 09:36:26;;;;;;;21.10;13.23;;;2.00;99.90;;;;;;5030719;28;20052;-69
2023/03/02 09:38:52;;;;;;;28.92;15.32;;;2.10;99.90;;;;;;5014135;28;20129;-69
2023/03/02 09:41:18;;;;;;;22.48;13.77;;;1.90;99.90;;;;;;4995253;28;20041;-69
2023/03/02 09:43:49;;;;;;;22.38;13.18;;;2.10;99.90;;;;;;5019619;28;20084;-69
2023/03/02 09:46:19;;;;;;;21.40;12.77;;;2.00;99.90;;;;;;5011955;28;20041;-69
2023/03/02 09:49:10;;;;;;;20.60;12.50;;;1.90;99.90;;;;;;5028850;28;20069;-69
2023/03/02 09:51:42;;;;;;;20.58;12.90;;;2.00;99.90;;;;;;5030959;28;20045;-69
2023/03/02 09:54:20;;;;;;;35.25;17.38;;;2.10;99.90;;;;;;5034554;28;20057;-69
2023/03/02 09:56:47;;;;;;;24.67;14.60;;;2.00;99.90;;;;;;5021877;28;20049;-68
2023/03/02 09:59:22;;;;;;;21.98;13.60;;;2.00;99.90;;;;;;5045785;28;20041;-69
2023/03/02 10:01:51;;;;;;;23.88;13.75;;;2.20;99.90;;;;;;5006649;28;20052;-69
2023/03/02 10:04:29;;;;;;;21.52;13.60;;;2.00;99.90;;;;;;5000747;28;20047;-69
2023/03/02 10:07:12;;;;;;;25.55;14.85;;;2.20;99.90;;;;;;5025902;28;20425;-69
2023/03/02 10:09:38;;;;;;;22.05;14.00;;;2.40;99.90;;;;;;5021347;28;20551;-68
2023/03/02 10:12:32;;;;;;;27.05;15.35;;;2.40;99.90;;;;;;5026898;28;20057;-69
2023/03/02 10:15:24;;;;;;;23.98;14.30;;;2.30;99.90;;;;;;5003702;28;20057;-69
2023/03/02 10:18:12;;;;;;;26.65;14.15;;;2.40;99.90;;;;;;4980924;28;20050;-70
2023/03/02 10:20:55;;;;;;;23.20;14.25;;;2.60;99.90;;;;;;4978252;28;20038;-68
2023/03/02 10:23:30;;;;;;;22.75;13.63;;;2.60;99.90;;;;;;5022808;28;20481;-69
2023/03/02 10:26:18;;;;;;;24.65;14.15;;;2.70;99.90;;;;;;5020770;28;20084;-70
2023/03/02 10:28:48;;;;;;;23.75;14.73;;;2.60;99.90;;;;;;5013587;28;20045;-70
2023/03/02 10:31:34;;;;;;;24.13;15.07;;;2.60;99.90;;;;;;5019998;28;20050;-71
2023/03/02 10:34:00;;;;;;;27.08;15.35;;;2.50;99.90;;;;;;5012252;28;20144;-69
2023/03/02 10:36:30;;;;;;;25.00;14.57;;;2.60;99.90;;;;;;5023140;28;20073;-69
2023/03/02 10:38:57;;;;;;;25.10;14.23;;;2.50;99.90;;;;;;5015928;28;20111;-70
2023/03/02 10:41:28;;;;;;;25.05;15.32;;;2.50;99.90;;;;;;5017360;28;20128;-69
2023/03/02 10:43:57;;;;;;;23.23;14.30;;;2.70;99.90;;;;;;5028492;28;20088;-69
2023/03/02 10:46:22;;;;;;;31.52;17.67;;;2.90;99.90;;;;;;5013862;28;20528;-70
2023/03/02 10:48:55;;;;;;;24.58;15.50;;;2.80;99.90;;;;;;5023608;28;20057;-69
2023/03/02 10:51:31;;;;;;;24.70;14.95;;;2.70;99.90;;;;;;5004598;28;20046;-69
2023/03/02 10:54:04;;;;;;;22.05;13.00;;;2.80;99.90;;;;;;5016402;28;20066;-69
2023/03/02 10:56:30;;;;;;;23.60;13.45;;;2.90;99.90;;;;;;5009451;28;20056;-69
2023/03/02 10:59:02;;;;;;;20.88;12.77;;;2.90;99.90;;;;;;5005547;28;20041;-69
2023/03/02 11:01:29;;;;;;;22.17;12.45;;;2.80;99.90;;;;;;5029337;28;20505;-70
2023/03/02 11:03:56;;;;;;;22.85;13.88;;;2.90;99.90;;;;;;5006415;28;20198;-69
2023/03/02 11:06:22;;;;;;;20.95;13.25;;;2.80;99.90;;;;;;5009624;28;20175;-69
2023/03/02 11:09:06;;;;;;;22.30;13.80;;;2.80;99.90;;;;;;5012428;28;20136;-69
2023/03/02 11:11:32;;;;;;;20.75;12.32;;;2.90;99.90;;;;;;5023501;28;20446;-70
2023/03/02 11:14:14;;;;;;;19.73;12.63;;;2.80;99.90;;;;;;5024148;28;20049;-69
2023/03/02 11:16:40;;;;;;;24.45;13.20;;;2.70;99.90;;;;;;4998248;28;20085;-69
2023/03/02 11:19:18;;;;;;;21.05;13.38;;;2.70;99.90;;;;;;5012549;28;20422;-69
2023/03/02 11:21:47;;;;;;;21.88;12.27;;;3.00;99.90;;;;;;5008086;28;20041;-69
2023/03/02 11:24:15;;;;;;;19.90;12.55;;;3.10;99.90;;;;;;5003885;28;20149;-69
2023/03/02 11:27:21;;;;;;;18.58;12.20;;;3.20;99.90;;;;;;5022822;28;20179;-69
2023/03/02 11:30:17;;;;;;;17.92;11.30;;;3.50;99.90;;;;;;4992722;28;20046;-69
2023/03/02 11:33:01;;;;;;;20.40;12.40;;;3.40;99.90;;;;;;5022016;28;20049;-68
2023/03/02 11:35:36;;;;;;;23.88;13.82;;;3.50;99.90;;;;;;5005946;28;20136;-69
2023/03/02 11:38:18;;;;;;;24.58;14.02;;;3.40;99.90;;;;;;5013775;28;20112;-68
2023/03/02 11:40:47;;;;;;;20.20;11.98;;;3.20;99.90;;;;;;5011178;28;20128;-68
2023/03/02 11:43:13;;;;;;;21.70;12.98;;;3.20;99.90;;;;;;5005256;28;20053;-69
2023/03/02 11:45:47;;;;;;;22.20;13.40;;;3.20;99.90;;;;;;5022002;28;20060;-69
2023/03/02 11:48:28;;;;;;;22.52;14.00;;;3.30;99.90;;;;;;5009292;28;20053;-69
2023/03/02 11:51:11;;;;;;;21.83;13.02;;;3.20;99.90;;;;;;5019354;28;20111;-68
2023/03/02 11:53:48;;;;;;;22.55;13.93;;;3.10;99.90;;;;;;5028937;28;20054;-69
2023/03/02 11:56:13;;;;;;;23.45;14.23;;;3.10;99.90;;;;;;5026400;28;20053;-70
2023/03/02 11:58:40;;;;;;;23.48;14.25;;;3.20;99.90;;;;;;4997500;28;20300;-69
2023/03/02 12:01:07;;;;;;;25.20;15.25;;;3.30;99.90;;;;;;4996690;28;20049;-69
2023/03/02 12:03:33;;;;;;;26.23;16.05;;;3.30;99.90;;;;;;4989096;28;20041;-69
2023/03/02 12:06:03;;;;;;;24.98;15.73;;;3.30;99.90;;;;;;5022519;28;20037;-69
2023/03/02 12:08:35;;;;;;;27.20;17.00;;;3.40;99.90;;;;;;5033853;28;20041;-70
2023/03/02 12:11:18;;;;;;;28.90;17.77;;;3.60;99.90;;;;;;5004430;28;20049;-70
2023/03/02 12:13:53;;;;;;;30.27;17.65;;;3.70;99.90;;;;;;5024461;28;20129;-70
2023/03/02 12:16:41;;;;;;;29.17;17.02;;;3.90;99.90;;;;;;5023068;28;20060;-69
2023/03/02 12:19:26;;;;;;;27.77;17.65;;;3.80;99.90;;;;;;5027597;28;20122;-69
2023/03/02 12:21:55;;;;;;;31.05;18.45;;;3.80;99.90;;;;;;5008648;28;20041;-69
2023/03/02 12:24:27;;;;;;;30.60;17.95;;;4.00;99.90;;;;;;5024873;28;20048;-69
2023/03/02 12:27:11;;;;;;;27.45;17.67;;;4.00;99.90;;;;;;5017464;28;20053;-69
2023/03/02 12:29:41;;;;;;;29.30;18.02;;;4.00;99.90;;;;;;5022002;28;20084;-69
2023/03/02 12:32:26;;;;;;;33.15;20.85;;;4.00;99.90;;;;;;4994558;28;20097;-69
2023/03/02 12:35:07;;;;;;;31.15;18.98;;;3.70;99.90;;;;;;4995607;28;20107;-69
2023/03/02 12:37:55;;;;;;;30.90;19.63;;;3.70;99.90;;;;;;5022231;28;20049;-68
2023/03/02 12:40:56;;;;;;;31.25;19.48;;;3.60;99.90;;;;;;5011370;28;20057;-70
2023/03/02 12:43:31;;;;;;;32.92;19.77;;;3.80;99.90;;;;;;5034176;28;20455;-69
2023/03/02 12:46:22;;;;;;;32.38;18.58;;;3.70;99.90;;;;;;5009313;28;20080;-69